createdAt,value
2019-04-19T00:00:26.779Z,54.28
2019-04-19T00:01:26.783Z,54.10
2019-04-19T00:02:35.393Z,53.91
2019-04-19T00:03:31.116Z,53.52
2019-04-19T00:04:27.663Z,53.71
2019-04-19T00:05:30.860Z,53.91
2019-04-19T00:06:31.659Z,53.81
2019-04-19T00:07:27.835Z,54.07
2019-04-19T00:08:41.510Z,54.10
2019-04-19T00:09:34.904Z,53.62
2019-04-19T00:10:37.953Z,54.07
2019-04-19T00:11:35.340Z,53.97
2019-04-19T00:12:39.929Z,53.97
2019-04-19T00:13:26.318Z,54.16
2019-04-19T00:14:25.771Z,53.97
2019-04-19T00:15:26.559Z,54.07
2019-04-19T00:16:25.786Z,54.07
2019-04-19T00:17:29.298Z,54.16
2019-04-19T00:18:26.226Z,54.45
2019-04-19T00:19:52.509Z,54.93
2019-04-19T00:20:45.355Z,55.22
2019-04-19T00:21:55.812Z,55.22
2019-04-19T00:22:39.704Z,54.74
2019-04-19T00:23:31.996Z,54.83
2019-04-19T00:24:24.994Z,55.47
2019-04-19T00:25:25.823Z,55.86
2019-04-19T00:26:25.866Z,55.86
2019-04-19T00:27:31.958Z,55.86
2019-04-19T00:28:35.286Z,56.53
2019-04-19T00:29:35.522Z,56.15
2019-04-19T00:30:38.797Z,56.15
2019-04-19T00:31:34.116Z,56.05
2019-04-19T00:32:34.917Z,56.24
2019-04-19T00:33:33.073Z,56.82
2019-04-19T00:34:25.250Z,56.43
2019-04-19T00:35:24.366Z,56.62
2019-04-19T00:36:23.959Z,56.91
2019-04-19T00:37:24.737Z,56.91
2019-04-19T00:38:38.343Z,57.01
2019-04-19T00:39:38.484Z,56.82
2019-04-19T00:40:38.183Z,56.91
2019-04-19T00:41:35.804Z,57.29
2019-04-19T00:42:40.230Z,57.20
2019-04-19T00:43:39.161Z,56.72
2019-04-19T00:44:50.612Z,57.20
2019-04-19T00:45:35.054Z,56.91
2019-04-19T00:46:38.288Z,56.91
2019-04-19T00:47:40.839Z,56.91
2019-04-19T00:48:40.792Z,56.91
2019-04-19T00:49:32.039Z,56.91
2019-04-19T00:50:35.519Z,57.10
2019-04-19T00:51:39.954Z,56.91
2019-04-19T00:52:53.191Z,56.82
2019-04-19T00:53:32.871Z,56.62
2019-04-19T00:54:30.117Z,56.91
2019-04-19T00:55:35.078Z,56.62
2019-04-19T00:56:33.517Z,56.91
2019-04-19T00:57:30.297Z,57.39
2019-04-19T00:58:26.370Z,57.29
2019-04-19T00:59:23.275Z,57.01
2019-04-19T01:00:27.911Z,57.01
2019-04-19T01:01:26.039Z,57.87
2019-04-19T01:02:23.695Z,57.20
2019-04-19T01:03:29.586Z,57.39
2019-04-19T01:04:25.750Z,57.01
2019-04-19T01:05:26.971Z,58.06
2019-04-19T01:06:30.671Z,57.87
2019-04-19T01:07:28.415Z,57.29
2019-04-19T01:08:24.453Z,57.01
2019-04-19T01:09:37.173Z,57.01
2019-04-19T01:10:35.160Z,57.07
2019-04-19T01:11:34.006Z,57.17
2019-04-19T01:12:40.621Z,58.12
2019-04-19T01:13:38.223Z,58.12
2019-04-19T01:14:33.333Z,58.22
2019-04-19T01:15:30.973Z,58.32
2019-04-19T01:16:31.197Z,58.32
2019-04-19T01:17:34.880Z,58.51
2019-04-19T01:18:32.122Z,59.24
2019-04-19T01:19:22.389Z,59.08
2019-04-19T01:20:20.529Z,59.63
2019-04-19T01:21:20.414Z,59.44
2019-04-19T01:22:23.951Z,59.34
2019-04-19T01:23:21.341Z,59.15
2019-04-19T01:24:25.591Z,59.81
2019-04-19T01:25:24.079Z,60.20
2019-04-19T01:26:20.091Z,60.39
2019-04-19T01:27:24.913Z,60.39
2019-04-19T01:28:24.171Z,59.72
2019-04-19T01:29:21.397Z,59.81
2019-04-19T01:30:27.404Z,59.91
2019-04-19T01:31:23.167Z,59.63
2019-04-19T01:32:21.385Z,59.72
2019-04-19T01:33:29.049Z,60.01
2019-04-19T01:34:22.826Z,59.34
2019-04-19T01:35:21.388Z,59.63
2019-04-19T01:36:28.804Z,59.91
2019-04-19T01:37:22.453Z,59.81
2019-04-19T01:38:19.112Z,59.34
2019-04-19T01:39:33.728Z,59.24
2019-04-19T01:40:37.501Z,59.24
2019-04-19T01:41:33.644Z,58.76
2019-04-19T01:42:37.802Z,59.15
2019-04-19T01:43:35.296Z,59.72
2019-04-19T01:44:39.244Z,59.44
2019-04-19T01:45:40.446Z,59.81
2019-04-19T01:46:40.923Z,59.53
2019-04-19T01:47:36.263Z,59.44
2019-04-19T01:48:34.256Z,59.44
2019-04-19T01:49:36.845Z,59.53
2019-04-19T01:50:38.454Z,59.78
2019-04-19T01:51:38.970Z,59.69
2019-04-19T01:52:44.939Z,59.44
2019-04-19T01:53:33.061Z,59.44
2019-04-19T01:54:34.534Z,59.88
2019-04-19T01:55:24.891Z,60.36
2019-04-19T01:56:19.984Z,60.07
2019-04-19T01:57:17.717Z,60.64
2019-04-19T01:58:19.670Z,60.36
2019-04-19T01:59:18.135Z,60.27
2019-04-19T02:00:24.407Z,60.55
2019-04-19T02:01:22.096Z,60.46
2019-04-19T02:02:20.801Z,59.98
2019-04-19T02:03:17.071Z,60.17
2019-04-19T02:04:21.434Z,60.27
2019-04-19T02:05:19.518Z,60.55
2019-04-19T02:06:21.198Z,60.27
2019-04-19T02:07:22.413Z,60.17
2019-04-19T02:08:17.963Z,60.55
2019-04-19T02:09:29.237Z,60.55
2019-04-19T02:10:34.707Z,61.03
2019-04-19T02:11:29.530Z,60.74
2019-04-19T02:12:32.129Z,60.42
2019-04-19T02:13:24.785Z,61.13
2019-04-19T02:14:22.076Z,60.84
2019-04-19T02:15:27.938Z,60.84
2019-04-19T02:16:20.420Z,61.03
2019-04-19T02:17:17.824Z,60.64
2019-04-19T02:18:20.957Z,60.84
2019-04-19T02:19:20.900Z,60.93
2019-04-19T02:20:17.045Z,60.90
2019-04-19T02:21:22.726Z,60.61
2019-04-19T02:22:22.795Z,61.19
2019-04-19T02:23:17.239Z,61.47
2019-04-19T02:24:15.392Z,62.15
2019-04-19T02:25:21.425Z,61.57
2019-04-19T02:26:19.624Z,61.76
2019-04-19T02:27:16.902Z,61.57
2019-04-19T02:28:18.219Z,61.47
2019-04-19T02:29:20.106Z,61.47
2019-04-19T02:30:26.280Z,60.81
2019-04-19T02:31:35.941Z,60.81
2019-04-19T02:32:31.025Z,60.90
2019-04-19T02:33:41.107Z,60.61
2019-04-19T02:34:39.294Z,61.10
2019-04-19T02:35:34.981Z,61.00
2019-04-19T02:36:51.887Z,60.61
2019-04-19T02:38:46.701Z,60.90
2019-04-19T02:40:52.642Z,61.19
2019-04-19T02:41:40.056Z,60.52
2019-04-19T02:45:01.204Z,60.42
2019-04-19T02:45:35.993Z,60.90
2019-04-19T02:46:50.282Z,61.29
2019-04-19T02:48:48.571Z,61.95
2019-04-19T02:49:46.973Z,61.57
2019-04-19T02:51:02.100Z,61.57
2019-04-19T02:51:38.471Z,61.19
2019-04-19T02:52:42.596Z,61.29
2019-04-19T02:53:41.496Z,61.00
2019-04-19T02:54:44.001Z,60.90
2019-04-19T02:55:47.404Z,61.00
2019-04-19T02:58:43.643Z,61.16
2019-04-19T03:01:49.309Z,61.35
2019-04-19T03:03:15.135Z,61.63
2019-04-19T03:03:31.978Z,61.63
2019-04-19T03:05:35.278Z,62.30
2019-04-19T03:06:28.775Z,61.92
2019-04-19T03:07:13.023Z,61.73
2019-04-19T03:08:12.421Z,61.54
2019-04-19T03:09:11.780Z,61.25
2019-04-19T03:10:17.477Z,61.35
2019-04-19T03:11:31.122Z,61.35
2019-04-19T03:12:32.138Z,61.83
2019-04-19T03:13:25.988Z,61.83
2019-04-19T03:14:24.555Z,62.49
2019-04-19T03:15:31.695Z,62.49
2019-04-19T03:16:35.707Z,62.78
2019-04-19T03:17:31.844Z,63.07
2019-04-19T03:18:30.778Z,63.16
2019-04-19T03:19:23.395Z,62.78
2019-04-19T03:21:31.959Z,63.73
2019-04-19T03:22:43.562Z,63.54
2019-04-19T03:23:22.269Z,62.88
2019-04-19T03:24:23.944Z,63.16
2019-04-19T03:25:23.102Z,63.45
2019-04-19T03:26:28.165Z,63.92
2019-04-19T03:27:17.854Z,63.73
2019-04-19T03:28:23.467Z,63.26
2019-04-19T03:29:16.410Z,63.54
2019-04-19T03:30:29.497Z,63.73
2019-04-19T03:31:41.333Z,63.92
2019-04-19T03:34:41.939Z,62.88
2019-04-19T03:35:26.396Z,63.07
2019-04-19T03:36:24.657Z,62.49
2019-04-19T03:37:44.332Z,63.07
2019-04-19T03:38:30.170Z,62.59
2019-04-19T03:39:29.798Z,63.35
2019-04-19T03:40:32.554Z,63.26
2019-04-19T03:41:40.557Z,63.16
2019-04-19T03:42:39.575Z,62.97
2019-04-19T03:43:31.474Z,63.16
2019-04-19T03:44:25.285Z,62.97
2019-04-19T03:45:24.374Z,63.16
2019-04-19T03:46:22.381Z,63.16
2019-04-19T03:47:28.055Z,62.88
2019-04-19T03:48:28.794Z,62.97
2019-04-19T03:49:40.025Z,62.88
2019-04-19T03:50:26.445Z,62.97
2019-04-19T03:51:26.304Z,62.97
2019-04-19T03:52:25.933Z,62.97
2019-04-19T03:53:36.433Z,62.88
2019-04-19T03:54:23.493Z,63.16
2019-04-19T03:55:24.397Z,63.16
2019-04-19T03:56:26.453Z,62.88
2019-04-19T03:57:20.632Z,62.97
2019-04-19T03:58:14.198Z,62.88
2019-04-19T03:59:07.732Z,62.97
2019-04-19T04:00:08.923Z,63.35
2019-04-19T04:01:08.609Z,63.64
2019-04-19T04:02:07.775Z,63.73
2019-04-19T04:03:18.836Z,64.02
2019-04-19T04:04:14.706Z,63.83
2019-04-19T04:05:11.194Z,63.92
2019-04-19T04:06:08.304Z,63.54
2019-04-19T04:07:12.381Z,63.70
2019-04-19T04:08:10.233Z,63.89
2019-04-19T04:09:09.423Z,63.89
2019-04-19T04:10:08.088Z,64.47
2019-04-19T04:11:12.584Z,64.85
2019-04-19T04:12:23.772Z,65.42
2019-04-19T04:13:20.406Z,65.23
2019-04-19T04:14:15.000Z,64.65
2019-04-19T04:15:17.733Z,64.28
2019-04-19T04:16:18.757Z,63.99
2019-04-19T04:17:06.279Z,63.89
2019-04-19T04:18:06.856Z,64.09
2019-04-19T04:19:06.204Z,64.65
2019-04-19T04:20:07.305Z,63.89
2019-04-19T04:21:05.954Z,64.75
2019-04-19T04:22:09.944Z,64.94
2019-04-19T04:23:10.562Z,64.94
2019-04-19T04:24:16.020Z,65.13
2019-04-19T04:25:13.364Z,65.13
2019-04-19T04:26:11.461Z,65.04
2019-04-19T04:27:12.227Z,64.85
2019-04-19T04:28:17.428Z,64.28
2019-04-19T04:29:14.609Z,64.75
2019-04-19T04:30:15.757Z,64.85
2019-04-19T04:31:15.853Z,64.37
2019-04-19T04:32:12.518Z,63.99
2019-04-19T04:33:13.375Z,64.47
2019-04-19T04:34:22.334Z,64.09
2019-04-19T04:35:20.161Z,64.47
2019-04-19T04:36:25.251Z,65.23
2019-04-19T04:37:22.714Z,64.94
2019-04-19T04:38:16.117Z,64.75
2019-04-19T04:39:05.029Z,64.59
2019-04-19T04:40:04.416Z,64.56
2019-04-19T04:41:07.864Z,64.56
2019-04-19T04:42:19.501Z,64.75
2019-04-19T04:43:22.970Z,64.85
2019-04-19T04:44:20.030Z,64.65
2019-04-19T04:45:41.179Z,63.99
2019-04-19T04:46:27.796Z,63.60
2019-04-19T04:47:25.760Z,63.99
2019-04-19T04:48:24.971Z,63.99
2019-04-19T04:49:30.502Z,63.60
2019-04-19T04:50:25.725Z,63.89
2019-04-19T04:51:19.594Z,63.99
2019-04-19T04:52:14.162Z,63.99
2019-04-19T04:53:04.589Z,63.99
2019-04-19T04:54:04.058Z,64.47
2019-04-19T04:55:03.284Z,64.94
2019-04-19T04:56:06.995Z,64.85
2019-04-19T04:57:08.907Z,65.04
2019-04-19T04:58:06.665Z,65.52
2019-04-19T04:59:09.015Z,65.42
2019-04-19T05:00:04.503Z,65.70
2019-04-19T05:01:09.070Z,65.42
2019-04-19T05:02:10.002Z,66.28
2019-04-19T05:03:18.890Z,66.38
2019-04-19T05:04:20.918Z,66.38
2019-04-19T05:05:19.877Z,66.75
2019-04-19T05:06:23.311Z,66.47
2019-04-19T05:07:25.726Z,66.47
2019-04-19T05:08:20.286Z,66.18
2019-04-19T05:09:22.586Z,66.28
2019-04-19T05:10:23.500Z,66.38
2019-04-19T05:11:20.295Z,66.09
2019-04-19T05:12:34.166Z,66.56
2019-04-19T05:13:33.281Z,66.47
2019-04-19T05:14:26.016Z,66.28
2019-04-19T05:15:22.358Z,66.28
2019-04-19T05:16:28.644Z,66.18
2019-04-19T05:17:37.071Z,66.47
2019-04-19T05:18:45.077Z,66.28
2019-04-19T05:19:18.726Z,65.52
2019-04-19T05:20:18.154Z,65.33
2019-04-19T05:21:21.914Z,65.42
2019-04-19T05:22:18.485Z,65.61
2019-04-19T05:23:20.983Z,66.18
2019-04-19T05:24:21.098Z,66.09
2019-04-19T05:25:25.702Z,66.09
2019-04-19T05:26:30.114Z,66.75
2019-04-19T05:27:24.224Z,66.09
2019-04-19T05:28:16.810Z,65.99
2019-04-19T05:29:10.746Z,66.09
2019-04-19T05:30:01.162Z,66.56
2019-04-19T05:31:04.978Z,66.75
2019-04-19T05:32:11.620Z,66.38
2019-04-19T05:33:09.891Z,65.42
2019-04-19T05:34:20.326Z,65.42
2019-04-19T05:35:14.451Z,65.55
2019-04-19T05:36:18.342Z,65.74
2019-04-19T05:37:14.060Z,65.55
2019-04-19T05:38:16.473Z,65.64
2019-04-19T05:39:21.362Z,65.74
2019-04-19T05:40:18.925Z,66.50
2019-04-19T05:41:11.447Z,66.69
2019-04-19T05:42:12.136Z,66.02
2019-04-19T05:43:23.194Z,65.45
2019-04-19T05:45:35.163Z,65.07
2019-04-19T05:46:21.010Z,64.97
2019-04-19T05:47:18.612Z,64.69
2019-04-19T05:48:08.534Z,64.12
2019-04-19T05:49:16.260Z,63.45
2019-04-19T05:50:23.931Z,63.54
2019-04-19T05:51:31.322Z,63.26
2019-04-19T05:52:17.324Z,63.16
2019-04-19T05:53:10.216Z,63.26
2019-04-19T05:54:03.867Z,63.29
2019-04-19T05:54:58.339Z,62.78
2019-04-19T05:55:58.626Z,62.34
2019-04-19T05:57:10.572Z,62.68
2019-04-19T05:58:11.432Z,62.43
2019-04-19T05:59:08.943Z,61.86
2019-04-19T06:00:10.659Z,62.43
2019-04-19T06:01:10.147Z,62.15
2019-04-19T06:02:10.342Z,61.57
2019-04-19T06:03:10.371Z,61.38
2019-04-19T06:04:17.134Z,60.71
2019-04-19T06:05:33.855Z,61.47
2019-04-19T06:06:19.604Z,61.86
2019-04-19T06:07:17.858Z,63.57
2019-04-19T06:08:08.436Z,63.76
2019-04-19T06:08:58.274Z,62.91
2019-04-19T06:09:58.115Z,63.29
2019-04-19T06:11:01.194Z,62.81
2019-04-19T06:11:58.099Z,62.52
2019-04-19T06:13:02.855Z,62.62
2019-04-19T06:14:22.223Z,61.95
2019-04-19T06:15:19.093Z,61.66
2019-04-19T06:16:15.449Z,61.57
2019-04-19T06:17:08.808Z,61.47
2019-04-19T06:18:13.281Z,60.84
2019-04-19T06:19:20.493Z,60.36
2019-04-19T06:20:17.823Z,60.46
2019-04-19T06:21:19.553Z,60.27
2019-04-19T06:22:08.363Z,60.36
2019-04-19T06:23:13.507Z,60.07
2019-04-19T06:24:19.125Z,60.07
2019-04-19T06:25:12.406Z,60.17
2019-04-19T06:26:50.260Z,59.98
2019-04-19T06:27:17.736Z,59.98
2019-04-19T06:28:26.881Z,60.36
2019-04-19T06:29:15.053Z,61.41
2019-04-19T06:30:25.027Z,61.79
2019-04-19T06:31:22.053Z,62.65
2019-04-19T06:32:20.710Z,61.89
2019-04-19T06:33:18.335Z,61.32
2019-04-19T06:34:18.282Z,60.84
2019-04-19T06:35:11.643Z,60.93
2019-04-19T06:35:59.468Z,61.03
2019-04-19T06:37:04.436Z,61.22
2019-04-19T06:37:54.901Z,61.51
2019-04-19T06:38:55.152Z,61.13
2019-04-19T06:40:04.917Z,61.13
2019-04-19T06:41:01.952Z,61.51
2019-04-19T06:42:00.905Z,61.98
2019-04-19T06:43:04.274Z,61.51
2019-04-19T06:44:05.109Z,61.03
2019-04-19T06:45:13.205Z,61.41
2019-04-19T06:46:09.617Z,61.89
2019-04-19T06:47:06.176Z,61.69
2019-04-19T06:48:01.912Z,61.54
2019-04-19T06:49:01.403Z,61.72
2019-04-19T06:49:55.635Z,61.51
2019-04-19T06:50:57.224Z,60.74
2019-04-19T06:52:01.316Z,60.49
2019-04-19T06:52:53.718Z,60.10
2019-04-19T06:53:58.903Z,58.76
2019-04-19T06:54:53.713Z,58.38
2019-04-19T06:56:06.828Z,58.76
2019-04-19T06:57:08.599Z,58.29
2019-04-19T06:58:03.627Z,58.10
2019-04-19T06:59:04.707Z,58.38
2019-04-19T07:00:06.280Z,58.00
2019-04-19T07:01:04.904Z,57.71
2019-04-19T07:01:56.370Z,57.81
2019-04-19T07:02:54.102Z,57.81
2019-04-19T07:03:53.768Z,58.48
2019-04-19T07:05:08.923Z,58.19
2019-04-19T07:06:10.347Z,56.67
2019-04-19T07:07:09.665Z,56.67
2019-04-19T07:08:40.112Z,56.76
2019-04-19T07:09:31.081Z,56.57
2019-04-19T07:10:22.675Z,55.23
2019-04-19T07:11:27.272Z,55.16
2019-04-19T07:12:10.602Z,56.09
2019-04-19T07:13:09.770Z,56.88
2019-04-19T07:14:01.699Z,56.88
2019-04-19T07:15:06.680Z,56.98
2019-04-19T07:17:13.638Z,56.21
2019-04-19T07:18:06.387Z,57.07
2019-04-19T07:19:10.885Z,56.69
2019-04-19T07:20:07.722Z,56.12
2019-04-19T07:21:12.476Z,55.26
2019-04-19T07:22:06.252Z,55.64
2019-04-19T07:23:03.192Z,55.93
2019-04-19T07:24:20.421Z,56.79
2019-04-19T07:25:18.455Z,56.98
2019-04-19T07:26:18.223Z,55.16
2019-04-19T07:27:05.824Z,54.11
2019-04-19T07:28:00.690Z,54.88
2019-04-19T07:28:51.517Z,54.21
2019-04-19T07:29:52.347Z,54.11
2019-04-19T07:30:57.509Z,54.49
2019-04-19T07:31:51.259Z,54.59
2019-04-19T07:32:59.585Z,54.39
2019-04-19T07:34:03.546Z,54.52
2019-04-19T07:35:00.654Z,54.59
2019-04-19T07:36:11.598Z,54.33
2019-04-19T07:37:08.720Z,54.52
2019-04-19T07:38:17.250Z,54.04
2019-04-19T07:39:09.405Z,53.47
2019-04-19T07:40:16.216Z,53.37
2019-04-19T07:41:14.176Z,54.14
2019-04-19T07:42:10.981Z,53.94
2019-04-19T07:43:06.079Z,53.85
2019-04-19T07:44:02.428Z,53.37
2019-04-19T07:44:54.443Z,53.28
2019-04-19T07:46:08.301Z,53.66
2019-04-19T07:47:06.488Z,53.28
2019-04-19T07:47:58.556Z,52.51
2019-04-19T07:48:49.485Z,53.08
2019-04-19T07:50:00.553Z,53.18
2019-04-19T07:50:55.788Z,52.51
2019-04-19T07:51:57.233Z,52.99
2019-04-19T07:52:56.100Z,52.61
2019-04-19T07:53:52.456Z,52.32
2019-04-19T07:54:55.286Z,51.75
2019-04-19T07:56:01.699Z,51.58
2019-04-19T07:57:06.289Z,52.54
2019-04-19T07:59:14.905Z,52.63
2019-04-19T08:03:20.285Z,53.69
2019-04-19T08:04:27.426Z,53.11
2019-04-19T08:06:21.219Z,53.40
2019-04-19T08:07:17.220Z,51.77
2019-04-19T08:09:20.281Z,52.34
2019-04-19T08:11:16.831Z,53.40
2019-04-19T08:13:19.597Z,52.63
2019-04-19T08:14:40.093Z,52.28
2019-04-19T08:17:35.229Z,49.79
2019-04-19T08:27:57.929Z,48.18
2019-04-19T08:28:56.680Z,46.65
2019-04-19T08:29:54.177Z,46.55
2019-04-19T08:30:51.949Z,45.89
2019-04-19T08:31:46.751Z,45.50
2019-04-19T08:32:46.902Z,46.46
2019-04-19T08:33:46.517Z,45.98
2019-04-19T08:34:47.749Z,46.75
2019-04-19T08:35:50.446Z,47.22
2019-04-19T08:36:53.211Z,46.08
2019-04-19T08:37:48.465Z,45.69
2019-04-19T08:39:03.196Z,45.59
2019-04-19T08:39:58.575Z,45.50
2019-04-19T08:41:02.119Z,45.31
2019-04-19T08:42:06.778Z,45.50
2019-04-19T08:43:03.382Z,45.40
2019-04-19T08:43:59.337Z,45.31
2019-04-19T08:44:54.449Z,46.17
2019-04-19T08:45:44.859Z,45.79
2019-04-19T08:46:44.995Z,44.54
2019-04-19T08:47:56.018Z,44.64
2019-04-19T08:48:51.213Z,44.54
2019-04-19T08:49:47.751Z,44.18
2019-04-19T08:50:48.832Z,44.09
2019-04-19T08:51:45.259Z,44.09
2019-04-19T08:52:53.077Z,44.18
2019-04-19T08:53:57.022Z,44.76
2019-04-19T08:55:06.224Z,44.37
2019-04-19T08:56:01.748Z,43.80
2019-04-19T08:56:53.459Z,42.65
2019-04-19T08:57:51.193Z,42.19
2019-04-19T08:59:00.225Z,42.46
2019-04-19T09:00:08.911Z,42.29
2019-04-19T09:01:09.135Z,42.67
2019-04-19T09:02:07.230Z,42.86
2019-04-19T09:02:57.786Z,43.15
2019-04-19T09:04:02.691Z,42.38
2019-04-19T09:05:01.849Z,42.86
2019-04-19T09:06:34.895Z,42.86
2019-04-19T09:08:02.032Z,42.19
2019-04-19T09:08:58.108Z,42.67
2019-04-19T09:10:19.472Z,44.01
2019-04-19T09:11:04.033Z,43.63
2019-04-19T09:12:04.711Z,43.63
2019-04-19T09:13:16.904Z,43.63
2019-04-19T09:14:04.853Z,42.96
2019-04-19T09:15:03.879Z,43.15
2019-04-19T09:16:04.914Z,42.67
2019-04-19T09:17:07.239Z,42.79
2019-04-19T09:19:12.268Z,42.96
2019-04-19T09:21:00.016Z,43.44
2019-04-19T09:21:58.232Z,43.34
2019-04-19T09:22:53.228Z,44.11
2019-04-19T09:23:48.737Z,43.15
2019-04-19T09:24:52.808Z,42.60
2019-04-19T09:25:55.054Z,42.69
2019-04-19T09:26:59.010Z,43.27
2019-04-19T09:27:59.977Z,43.27
2019-04-19T09:29:00.308Z,42.79
2019-04-19T09:29:58.682Z,42.79
2019-04-19T09:30:58.431Z,42.69
2019-04-19T09:31:51.738Z,43.55
2019-04-19T09:32:42.270Z,43.36
2019-04-19T09:33:44.088Z,44.42
2019-04-19T09:34:50.912Z,43.65
2019-04-19T09:35:52.299Z,44.13
2019-04-19T09:36:49.147Z,43.27
2019-04-19T09:37:53.772Z,42.60
2019-04-19T09:38:56.990Z,42.40
2019-04-19T09:39:50.133Z,42.50
2019-04-19T09:40:48.695Z,43.27
2019-04-19T09:41:46.600Z,42.69
2019-04-19T09:42:51.114Z,41.73
2019-04-19T09:43:52.220Z,41.35
2019-04-19T09:44:47.986Z,41.63
2019-04-19T09:45:40.438Z,43.19
2019-04-19T09:46:40.411Z,43.46
2019-04-19T09:47:40.083Z,42.61
2019-04-19T09:48:56.598Z,42.79
2019-04-19T09:49:53.023Z,42.43
2019-04-19T09:50:55.084Z,42.43
2019-04-19T09:51:55.443Z,42.71
2019-04-19T09:52:59.963Z,42.61
2019-04-19T09:54:05.589Z,41.66
2019-04-19T09:55:03.622Z,40.89
2019-04-19T09:56:01.731Z,41.66
2019-04-19T09:56:53.672Z,42.13
2019-04-19T09:58:00.189Z,42.61
2019-04-19T09:58:53.112Z,41.94
2019-04-19T10:01:31.013Z,43.19
2019-04-19T10:02:29.881Z,42.61
2019-04-19T10:04:14.782Z,41.96
2019-04-19T10:05:14.798Z,41.66
2019-04-19T10:07:18.778Z,41.67
2019-04-19T10:08:18.076Z,42.16
2019-04-19T10:10:22.858Z,40.72
2019-04-19T10:11:23.113Z,40.43
2019-04-19T10:13:25.854Z,39.85
2019-04-19T10:14:25.708Z,41.49
2019-04-19T10:15:25.484Z,41.00
2019-04-19T10:16:26.367Z,41.49
2019-04-19T10:17:26.747Z,41.20
2019-04-19T10:18:25.265Z,40.62
2019-04-19T10:19:26.511Z,39.37
2019-04-19T10:20:25.099Z,39.76
2019-04-19T10:21:31.371Z,39.85
2019-04-19T10:22:25.296Z,41.39
2019-04-19T10:23:25.218Z,41.39
2019-04-19T10:24:26.064Z,40.62
2019-04-19T10:25:25.425Z,41.10
2019-04-19T10:26:24.649Z,41.49
2019-04-19T10:27:24.883Z,41.22
2019-04-19T10:28:26.580Z,40.93
2019-04-19T10:29:30.550Z,41.00
2019-04-19T10:30:24.505Z,40.43
2019-04-19T10:31:25.365Z,40.05
2019-04-19T10:32:24.472Z,39.01
2019-04-19T10:33:33.141Z,38.72
2019-04-19T10:34:24.926Z,38.81
2019-04-19T10:35:25.268Z,39.11
2019-04-19T10:36:24.551Z,39.11
2019-04-19T10:37:24.045Z,38.53
2019-04-19T10:38:23.756Z,38.93
2019-04-19T10:39:23.807Z,39.03
2019-04-19T10:40:23.804Z,38.35
2019-04-19T10:41:23.521Z,38.45
2019-04-19T10:42:23.441Z,38.54
2019-04-19T10:43:23.372Z,37.49
2019-04-19T10:44:25.049Z,37.49
2019-04-19T10:45:23.868Z,36.45
2019-04-19T10:46:23.141Z,36.45
2019-04-19T10:47:23.065Z,36.35
2019-04-19T10:48:23.139Z,36.45
2019-04-19T10:49:34.307Z,37.32
2019-04-19T10:50:32.808Z,38.28
2019-04-19T10:51:23.678Z,38.37
2019-04-19T10:52:23.795Z,39.04
2019-04-19T10:53:22.622Z,38.56
2019-04-19T10:54:22.554Z,38.56
2019-04-19T10:55:22.469Z,39.14
2019-04-19T10:56:22.608Z,39.04
2019-04-19T10:57:23.254Z,38.18
2019-04-19T10:58:23.260Z,38.37
2019-04-19T10:59:22.543Z,37.79
2019-04-19T11:00:22.093Z,37.79
2019-04-19T11:01:23.055Z,37.60
2019-04-19T11:02:24.087Z,37.51
2019-04-19T11:03:23.130Z,37.79
2019-04-19T11:04:22.784Z,38.09
2019-04-19T11:05:22.845Z,37.81
2019-04-19T11:06:21.773Z,38.10
2019-04-19T11:07:21.574Z,38.28
2019-04-19T11:08:22.457Z,37.81
2019-04-19T11:09:22.673Z,37.62
2019-04-19T11:10:22.017Z,37.34
2019-04-19T11:11:21.491Z,37.52
2019-04-19T11:12:21.960Z,37.04
2019-04-19T11:13:25.676Z,37.52
2019-04-19T11:14:21.864Z,37.91
2019-04-19T11:15:22.290Z,37.24
2019-04-19T11:16:21.511Z,36.95
2019-04-19T11:17:20.833Z,37.14
2019-04-19T11:18:21.546Z,36.76
2019-04-19T11:19:32.907Z,38.12
2019-04-19T11:20:31.923Z,37.34
2019-04-19T11:21:20.539Z,36.97
2019-04-19T11:22:21.557Z,35.81
2019-04-19T11:23:21.787Z,35.81
2019-04-19T11:24:20.317Z,35.71
2019-04-19T11:25:20.251Z,35.81
2019-04-19T11:26:21.044Z,35.52
2019-04-19T11:27:21.335Z,35.81
2019-04-19T11:28:20.953Z,35.52
2019-04-19T11:29:19.958Z,35.71
2019-04-19T11:30:20.928Z,36.49
2019-04-19T11:31:19.808Z,37.16
2019-04-19T11:32:19.930Z,36.39
2019-04-19T11:33:19.664Z,37.16
2019-04-19T11:34:19.598Z,37.35
2019-04-19T11:35:19.531Z,36.51
2019-04-19T11:36:19.514Z,37.27
2019-04-19T11:37:20.103Z,37.18
2019-04-19T11:38:19.323Z,36.52
2019-04-19T11:39:19.274Z,35.56
2019-04-19T11:40:19.563Z,35.65
2019-04-19T11:41:19.126Z,34.90
2019-04-19T11:42:19.308Z,36.15
2019-04-19T11:43:19.775Z,34.92
2019-04-19T11:44:22.889Z,34.14
2019-04-19T11:45:19.773Z,34.05
2019-04-19T11:46:19.954Z,35.52
2019-04-19T11:47:19.370Z,35.52
2019-04-19T11:48:18.686Z,34.28
2019-04-19T11:49:26.698Z,34.95
2019-04-19T11:50:19.771Z,34.10
2019-04-19T11:51:19.331Z,33.91
2019-04-19T11:52:19.733Z,34.31
2019-04-19T11:53:18.608Z,32.67
2019-04-19T11:54:18.693Z,32.09
2019-04-19T11:55:18.349Z,32.20
2019-04-19T11:56:18.611Z,32.20
2019-04-19T11:57:18.673Z,31.93
2019-04-19T11:58:18.055Z,33.47
2019-04-19T11:59:18.505Z,31.56
2019-04-19T12:00:17.943Z,29.91
2019-04-19T12:01:18.241Z,28.96
2019-04-19T12:02:17.966Z,28.76
2019-04-19T12:03:18.104Z,29.64
2019-04-19T12:04:18.446Z,29.55
2019-04-19T12:05:23.229Z,28.58
2019-04-19T12:06:18.353Z,29.06
2019-04-19T12:07:18.592Z,29.08
2019-04-19T12:08:18.217Z,28.20
2019-04-19T12:09:18.514Z,28.80
2019-04-19T12:10:18.645Z,28.32
2019-04-19T12:11:17.995Z,26.67
2019-04-19T12:12:17.257Z,28.90
2019-04-19T12:13:17.339Z,28.53
2019-04-19T12:14:17.409Z,27.08
2019-04-19T12:15:17.870Z,25.43
2019-04-19T12:18:00.022Z,26.89
2019-04-19T12:19:00.275Z,26.12
2019-04-19T12:21:03.511Z,24.87
2019-04-19T12:22:03.451Z,24.96
2019-04-19T12:24:08.624Z,24.39
2019-04-19T12:25:07.905Z,23.90
2019-04-19T12:27:11.690Z,23.03
2019-04-19T12:28:12.039Z,23.80
2019-04-19T12:30:15.712Z,23.33
2019-04-19T12:31:15.659Z,25.38
2019-04-19T12:33:19.537Z,23.35
2019-04-19T12:34:18.665Z,25.89
2019-04-19T12:36:23.389Z,23.25
2019-04-19T12:37:22.894Z,24.33
2019-04-19T12:39:27.278Z,24.82
2019-04-19T12:40:27.597Z,24.91
2019-04-19T12:41:26.245Z,23.07
2019-04-19T12:42:26.193Z,22.30
2019-04-19T12:43:26.140Z,22.00
2019-04-19T12:44:27.050Z,22.21
2019-04-19T12:45:26.269Z,22.69
2019-04-19T12:46:26.236Z,21.33
2019-04-19T12:47:26.895Z,22.60
2019-04-19T12:48:25.875Z,20.95
2019-04-19T12:49:26.767Z,20.16
2019-04-19T12:50:25.769Z,20.16
2019-04-19T12:51:26.005Z,21.14
2019-04-19T12:52:26.175Z,20.26
2019-04-19T12:53:25.611Z,20.75
2019-04-19T12:54:25.969Z,20.06
2019-04-19T12:55:26.110Z,19.59
2019-04-19T12:56:26.318Z,20.07
2019-04-19T12:57:25.840Z,19.99
2019-04-19T12:58:26.022Z,19.68
2019-04-19T12:59:26.400Z,20.18
2019-04-19T13:00:25.802Z,19.60
2019-04-19T13:01:26.045Z,18.82
2019-04-19T13:02:26.213Z,19.31
2019-04-19T13:03:25.638Z,18.82
2019-04-19T13:04:26.388Z,18.92
2019-04-19T13:05:27.012Z,19.60
2019-04-19T13:06:25.262Z,20.78
2019-04-19T13:07:24.895Z,18.15
2019-04-19T13:08:25.220Z,18.54
2019-04-19T13:09:24.778Z,20.10
2019-04-19T13:10:24.956Z,20.20
2019-04-19T13:11:25.213Z,19.24
2019-04-19T13:12:24.619Z,18.95
2019-04-19T13:13:25.693Z,19.53
2019-04-19T13:14:25.795Z,19.34
2019-04-19T13:15:25.056Z,18.76
2019-04-19T13:16:24.412Z,19.05
2019-04-19T13:17:24.363Z,18.47
2019-04-19T13:18:24.483Z,18.57
2019-04-19T13:19:25.010Z,18.46
2019-04-19T13:20:28.307Z,18.85
2019-04-19T13:21:24.249Z,17.68
2019-04-19T13:22:24.101Z,17.19
2019-04-19T13:23:24.335Z,17.49
2019-04-19T13:24:24.542Z,16.90
2019-04-19T13:25:23.948Z,19.24
2019-04-19T13:26:25.145Z,18.37
2019-04-19T13:27:35.524Z,17.10
2019-04-19T13:28:23.794Z,17.39
2019-04-19T13:29:23.741Z,17.59
2019-04-19T13:30:32.129Z,17.40
2019-04-19T13:31:24.846Z,18.37
2019-04-19T13:32:23.846Z,17.59
2019-04-19T13:33:24.131Z,18.97
2019-04-19T13:34:23.492Z,17.02
2019-04-19T13:35:23.534Z,16.72
2019-04-19T13:36:23.379Z,16.73
2019-04-19T13:37:23.324Z,18.00
2019-04-19T13:38:23.450Z,16.64
2019-04-19T13:39:23.221Z,16.64
2019-04-19T13:40:24.212Z,16.15
2019-04-19T13:41:23.112Z,16.16
2019-04-19T13:42:24.560Z,16.44
2019-04-19T13:43:23.014Z,19.10
2019-04-19T13:44:23.045Z,18.11